createdAt,value
2023-04-30T00:06:31.317Z,89.5
2023-04-30T00:10:42.523Z,90.0
2023-04-30T00:15:09.811Z,89.4
2023-04-30T00:20:18.352Z,89.4
2023-04-30T00:25:44.900Z,89.4
2023-04-30T00:31:25.356Z,89.2
2023-04-30T00:35:37.609Z,89.2
2023-04-30T00:41:08.105Z,89.2
2023-04-30T00:45:50.434Z,89.2
2023-04-30T00:50:56.747Z,89.1
2023-04-30T00:56:27.198Z,89.2
2023-04-30T01:01:09.520Z,89.7
2023-04-30T01:06:15.907Z,88.9
2023-04-30T01:11:22.247Z,88.9
2023-04-30T01:16:48.695Z,88.8
2023-04-30T01:21:24.991Z,88.8
2023-04-30T01:27:05.448Z,88.7
2023-04-30T01:31:48.004Z,88.7
2023-04-30T01:36:54.461Z,88.6
2023-04-30T01:42:00.824Z,88.6
2023-04-30T01:47:07.218Z,88.6
2023-04-30T01:52:13.614Z,88.5
2023-04-30T01:57:19.969Z,88.5
2023-04-30T02:02:26.532Z,88.4
2023-04-30T02:07:57.128Z,88.4
2023-04-30T02:17:35.940Z,88.4
2023-04-30T02:22:52.197Z,88.3
2023-04-30T02:27:58.867Z,88.1
2023-04-30T02:33:05.159Z,88.1
2023-04-30T02:38:31.690Z,88.0
2023-04-30T02:43:38.097Z,88.0
2023-04-30T02:48:48.452Z,87.9
2023-04-30T02:53:30.795Z,88.1
2023-04-30T02:58:37.333Z,88.0
2023-04-30T03:03:43.694Z,87.9
2023-04-30T03:08:50.089Z,87.9
2023-04-30T03:13:56.474Z,87.9
2023-04-30T03:24:09.247Z,87.7
2023-04-30T03:29:15.625Z,87.7
2023-04-30T03:34:22.036Z,87.7
2023-04-30T03:39:28.512Z,87.7
2023-04-30T04:00:14.079Z,87.5
2023-04-30T04:05:00.597Z,87.4
2023-04-30T04:10:06.949Z,87.4
2023-04-30T04:15:13.408Z,87.5
2023-04-30T04:20:59.786Z,87.3
2023-04-30T04:25:46.162Z,87.4
2023-04-30T04:30:32.466Z,87.2
2023-04-30T04:35:38.974Z,87.2
2023-04-30T04:40:35.526Z,87.2
2023-04-30T04:46:14.293Z,87.1
2023-04-30T04:51:18.441Z,87.2
2023-04-30T04:56:04.790Z,87.1
2023-04-30T05:01:11.263Z,87.1
2023-04-30T05:06:17.638Z,87.1
2023-04-30T05:11:44.129Z,87.3
2023-04-30T05:21:37.189Z,88.0
2023-04-30T05:36:46.230Z,89.5
2023-04-30T05:42:01.676Z,89.2
2023-04-30T05:47:09.155Z,89.5
2023-04-30T05:52:15.560Z,90.1
2023-04-30T05:57:21.939Z,89.8
2023-04-30T06:02:28.510Z,90.2
2023-04-30T06:07:54.895Z,90.5
2023-04-30T06:13:01.122Z,90.1
2023-04-30T06:18:59.616Z,90.2
2023-04-30T06:23:17.934Z,90.7
2023-04-30T06:28:00.374Z,90.7
2023-04-30T06:38:13.713Z,91.0
2023-04-30T06:43:20.078Z,91.1
2023-04-30T06:48:16.403Z,91.2
2023-04-30T06:53:52.867Z,91.0
2023-04-30T06:58:39.301Z,91.2
2023-04-30T07:03:45.670Z,91.2
2023-04-30T07:13:58.577Z,91.7
2023-04-30T07:19:04.934Z,91.6
2023-04-30T07:24:11.322Z,92.0
2023-04-30T07:29:17.717Z,91.9
2023-04-30T07:34:24.149Z,92.5
2023-04-30T07:39:30.513Z,92.0
2023-04-30T07:44:36.920Z,90.5
2023-04-30T07:49:33.258Z,89.5
2023-04-30T07:54:49.644Z,86.7
2023-04-30T08:00:20.113Z,85.8
2023-04-30T08:05:02.604Z,83.8
2023-04-30T08:10:08.975Z,82.7
2023-04-30T08:15:15.400Z,82.1
2023-04-30T08:20:21.870Z,80.9
2023-04-30T08:25:28.170Z,80.8
2023-04-30T08:30:34.534Z,80.2
2023-04-30T08:35:41.070Z,79.4
2023-04-30T08:40:50.891Z,78.8
2023-04-30T08:45:52.912Z,78.5
2023-04-30T08:51:00.282Z,78.6
2023-04-30T09:01:14.620Z,77.5
2023-04-30T09:06:21.036Z,76.7
2023-04-30T09:16:53.751Z,76.3
2023-04-30T09:21:40.116Z,75.1
2023-04-30T09:26:46.625Z,75.3
2023-04-30T09:31:53.150Z,75.0
2023-04-30T09:37:23.531Z,75.7
2023-04-30T09:42:29.901Z,74.2
2023-04-30T09:47:15.834Z,74.0
2023-04-30T10:07:42.697Z,71.7
2023-04-30T10:12:49.097Z,70.3
2023-04-30T10:17:55.539Z,70.9
2023-04-30T10:23:01.855Z,69.7
2023-04-30T10:28:08.260Z,69.2
2023-04-30T10:38:21.046Z,68.4
2023-04-30T10:43:27.514Z,68.2
2023-04-30T10:48:33.810Z,67.8
2023-04-30T10:53:40.209Z,65.8
2023-04-30T10:59:27.874Z,64.9
2023-04-30T11:04:12.163Z,65.3
2023-04-30T11:08:59.513Z,64.3
2023-04-30T11:14:05.896Z,63.4
2023-04-30T11:19:12.393Z,63.1
2023-04-30T11:24:38.706Z,62.5
2023-04-30T11:29:25.099Z,61.3
2023-04-30T11:34:45.505Z,61.5
2023-04-30T11:40:34.061Z,60.8
2023-04-30T11:44:44.325Z,61.5
2023-04-30T11:50:10.776Z,58.6
2023-04-30T11:55:41.195Z,58.9
2023-04-30T12:00:03.458Z,58.7
2023-04-30T12:05:29.918Z,60.9
2023-04-30T12:10:16.361Z,60.1
2023-04-30T12:15:22.748Z,59.6
2023-04-30T12:20:29.159Z,61.1
2023-04-30T12:25:35.533Z,60.4
2023-04-30T12:30:41.910Z,61.5
2023-04-30T12:35:48.398Z,59.6
2023-04-30T12:46:01.247Z,63.0
2023-04-30T12:51:07.615Z,65.5
2023-04-30T12:56:14.006Z,65.5
2023-04-30T13:01:20.464Z,69.3
2023-04-30T13:06:26.788Z,70.7
2023-04-30T13:11:33.200Z,67.9
2023-04-30T13:17:03.705Z,70.7
2023-04-30T13:22:30.237Z,72.3
2023-04-30T13:28:04.701Z,71.3
2023-04-30T13:32:55.095Z,72.5
2023-04-30T13:37:05.368Z,70.0
2023-04-30T13:42:01.751Z,72.5
2023-04-30T13:47:19.162Z,73.3
2023-04-30T13:52:50.661Z,73.2
2023-04-30T13:57:33.008Z,73.8
2023-04-30T14:02:39.536Z,69.3
2023-04-30T14:08:09.816Z,72.1
2023-04-30T14:13:16.210Z,69.2
2023-04-30T14:17:58.715Z,71.0
2023-04-30T14:28:11.527Z,67.4
2023-04-30T14:33:17.955Z,70.0
2023-04-30T14:38:24.291Z,70.8
2023-04-30T14:43:30.667Z,70.7
2023-04-30T14:48:37.185Z,70.5
2023-04-30T14:53:43.556Z,67.1
2023-04-30T14:58:49.934Z,69.6
2023-04-30T15:03:56.428Z,67.4
2023-04-30T15:09:02.707Z,68.5
2023-04-30T15:14:09.116Z,69.5
2023-04-30T15:19:39.560Z,69.2
2023-04-30T15:24:22.001Z,68.2
2023-04-30T15:29:52.440Z,68.1
2023-04-30T15:34:34.938Z,67.5
2023-04-30T15:40:01.393Z,68.5
2023-04-30T15:49:54.292Z,67.3
2023-04-30T15:55:00.477Z,68.1
2023-04-30T16:00:06.972Z,67.9
2023-04-30T16:05:37.406Z,67.8
2023-04-30T16:10:39.895Z,68.8
2023-04-30T16:20:32.621Z,68.7
2023-04-30T16:26:03.068Z,69.3
2023-04-30T16:31:09.588Z,68.0
2023-04-30T16:35:51.890Z,68.2
2023-04-30T16:40:58.457Z,68.9
2023-04-30T16:46:06.122Z,68.9
2023-04-30T16:51:36.544Z,67.7
2023-04-30T16:56:19.389Z,70.7
2023-04-30T17:01:50.897Z,68.8
2023-04-30T17:06:33.823Z,70.0
2023-04-30T17:16:46.837Z,71.4
2023-04-30T17:21:53.338Z,70.4
2023-04-30T17:26:59.779Z,70.6
2023-04-30T17:32:30.231Z,71.5
2023-04-30T17:37:12.524Z,69.3
2023-04-30T17:42:43.000Z,69.8
2023-04-30T17:48:09.489Z,71.1
2023-04-30T17:52:31.833Z,69.7
2023-04-30T17:58:40.069Z,70.1
2023-04-30T18:02:43.811Z,70.7
2023-04-30T18:07:51.164Z,70.6
2023-04-30T18:13:21.592Z,70.3
2023-04-30T18:18:03.970Z,70.9
2023-04-30T18:23:10.300Z,70.9
2023-04-30T18:28:40.793Z,70.2
2023-04-30T18:33:23.158Z,71.0
2023-04-30T18:38:29.513Z,71.0
2023-04-30T18:58:56.180Z,71.2
2023-04-30T19:04:02.704Z,71.4
2023-04-30T19:09:09.056Z,71.4
2023-04-30T19:14:15.437Z,71.5
2023-04-30T19:21:03.917Z,71.5
2023-04-30T19:25:50.311Z,71.5
2023-04-30T19:30:56.982Z,71.7
2023-04-30T19:36:03.172Z,71.7
2023-04-30T19:41:09.535Z,71.7
2023-04-30T19:46:16.007Z,72.1
2023-04-30T19:56:28.768Z,72.2
2023-04-30T20:01:35.164Z,72.2
2023-04-30T20:12:11.970Z,72.4
2023-04-30T20:20:52.793Z,72.5
2023-04-30T20:27:31.176Z,72.8
2023-04-30T20:32:37.676Z,72.5
2023-04-30T20:42:26.365Z,72.8
2023-04-30T20:47:32.820Z,72.8
2023-04-30T20:52:39.131Z,72.9
2023-04-30T20:57:45.517Z,73.1
2023-04-30T21:02:52.184Z,73.1
2023-04-30T21:08:22.478Z,73.1
2023-04-30T21:13:04.833Z,73.4
2023-04-30T21:18:01.349Z,73.4
2023-04-30T21:23:17.601Z,73.4
2023-04-30T21:28:23.981Z,73.7
2023-04-30T21:33:30.527Z,73.8
2023-04-30T21:38:39.093Z,73.6
2023-04-30T21:44:09.562Z,73.6
2023-04-30T21:49:15.257Z,73.7
2023-04-30T21:54:25.606Z,73.7
2023-04-30T21:59:07.948Z,73.7
2023-04-30T22:05:34.667Z,73.7
2023-04-30T22:09:48.736Z,73.6
2023-04-30T22:15:11.125Z,73.6
2023-04-30T22:19:37.515Z,73.6
2023-04-30T22:24:43.915Z,73.5
2023-04-30T22:29:50.299Z,73.6
2023-04-30T22:34:56.657Z,73.4
2023-04-30T22:40:05.239Z,73.7
2023-04-30T22:45:11.697Z,73.7
2023-04-30T22:56:01.833Z,73.8
2023-04-30T23:01:06.279Z,74.0
2023-04-30T23:07:35.756Z,73.6
2023-04-30T23:11:44.026Z,73.6
2023-04-30T23:26:43.809Z,73.6
2023-04-30T23:36:58.743Z,73.5
2023-04-30T23:47:11.587Z,73.5
2023-04-30T23:52:07.968Z,74.7
2023-04-30T23:57:24.349Z,74.7
